ΕΜΥ, Εθνική Μετεωρολογική Υπηρεσία - Δελτία Καιρού, Προγνώσεις

ΑΕΡΟΝΑΥΤΙΛΙΑ

GREEK AIRPORTS CODES

LGMG 090800Z 02006G16KT 9999 FEW025 33/11 Q1009=

EUROPEAN AIRPORTS CODES

TAF LGMG 090700Z 0909/0918 35010KT 9999 FEW025 TEMPO 0909/0916 01018G28KT=